sensor_id;sensor_type;location;lat;lon;timestamp;P1;durP1;ratioP1;P2;durP2;ratioP2
17818;SDS011;9034;50.284;19.310;2023-08-24T00:00:29;7.72;;;5.05;;
17818;SDS011;9034;50.284;19.310;2023-08-24T00:01:32;10.00;;;6.05;;
17818;SDS011;9034;50.284;19.310;2023-08-24T00:02:35;6.32;;;5.72;;
17818;SDS011;9034;50.284;19.310;2023-08-24T00:03:37;6.15;;;5.32;;
17818;SDS011;9034;50.284;19.310;2023-08-24T00:04:41;7.15;;;5.35;;
17818;SDS011;9034;50.284;19.310;2023-08-24T00:05:44;6.72;;;4.88;;
17818;SDS011;9034;50.284;19.310;2023-08-24T00:06:47;10.75;;;5.22;;
17818;SDS011;9034;50.284;19.310;2023-08-24T00:07:52;11.07;;;4.63;;
17818;SDS011;9034;50.284;19.310;2023-08-24T00:08:55;5.63;;;5.03;;
17818;SDS011;9034;50.284;19.310;2023-08-24T00:09:57;6.22;;;4.55;;
17818;SDS011;9034;50.284;19.310;2023-08-24T00:11:00;7.85;;;5.28;;
17818;SDS011;9034;50.284;19.310;2023-08-24T00:12:02;5.68;;;4.80;;
17818;SDS011;9034;50.284;19.310;2023-08-24T00:13:05;7.38;;;5.18;;
17818;SDS011;9034;50.284;19.310;2023-08-24T00:14:08;5.57;;;5.05;;
17818;SDS011;9034;50.284;19.310;2023-08-24T00:15:11;6.57;;;4.75;;
17818;SDS011;9034;50.284;19.310;2023-08-24T00:16:13;5.57;;;4.53;;
17818;SDS011;9034;50.284;19.310;2023-08-24T00:17:15;5.47;;;4.18;;
17818;SDS011;9034;50.284;19.310;2023-08-24T00:18:18;4.97;;;4.35;;
17818;SDS011;9034;50.284;19.310;2023-08-24T00:19:20;6.18;;;4.35;;
17818;SDS011;9034;50.284;19.310;2023-08-24T00:20:25;5.47;;;4.43;;
17818;SDS011;9034;50.284;19.310;2023-08-24T00:21:28;6.28;;;5.07;;
17818;SDS011;9034;50.284;19.310;2023-08-24T00:22:31;5.22;;;4.72;;
17818;SDS011;9034;50.284;19.310;2023-08-24T00:23:33;9.95;;;5.85;;
17818;SDS011;9034;50.284;19.310;2023-08-24T00:24:36;7.25;;;5.00;;
17818;SDS011;9034;50.284;19.310;2023-08-24T00:25:39;5.70;;;5.00;;
17818;SDS011;9034;50.284;19.310;2023-08-24T00:26:42;9.00;;;5.07;;
17818;SDS011;9034;50.284;19.310;2023-08-24T00:27:45;8.40;;;5.30;;
17818;SDS011;9034;50.284;19.310;2023-08-24T00:28:48;5.78;;;4.75;;
17818;SDS011;9034;50.284;19.310;2023-08-24T00:29:53;6.95;;;4.78;;
17818;SDS011;9034;50.284;19.310;2023-08-24T00:30:56;9.25;;;5.15;;
17818;SDS011;9034;50.284;19.310;2023-08-24T00:32:02;5.85;;;4.75;;
17818;SDS011;9034;50.284;19.310;2023-08-24T00:33:07;7.00;;;5.13;;
17818;SDS011;9034;50.284;19.310;2023-08-24T00:34:09;7.68;;;5.45;;
17818;SDS011;9034;50.284;19.310;2023-08-24T00:35:17;6.97;;;5.28;;
17818;SDS011;9034;50.284;19.310;2023-08-24T00:36:21;7.05;;;6.05;;
17818;SDS011;9034;50.284;19.310;2023-08-24T00:37:24;6.72;;;5.97;;
17818;SDS011;9034;50.284;19.310;2023-08-24T00:38:26;6.25;;;5.65;;
17818;SDS011;9034;50.284;19.310;2023-08-24T00:39:29;5.88;;;4.97;;
17818;SDS011;9034;50.284;19.310;2023-08-24T00:40:34;5.28;;;4.57;;
17818;SDS011;9034;50.284;19.310;2023-08-24T00:41:36;18.25;;;5.70;;
17818;SDS011;9034;50.284;19.310;2023-08-24T00:42:39;8.63;;;6.10;;
17818;SDS011;9034;50.284;19.310;2023-08-24T00:43:42;6.65;;;5.35;;
17818;SDS011;9034;50.284;19.310;2023-08-24T00:44:45;7.05;;;5.35;;
17818;SDS011;9034;50.284;19.310;2023-08-24T00:45:48;7.93;;;5.82;;
17818;SDS011;9034;50.284;19.310;2023-08-24T00:46:52;7.00;;;5.28;;
17818;SDS011;9034;50.284;19.310;2023-08-24T00:48:08;5.25;;;4.47;;
17818;SDS011;9034;50.284;19.310;2023-08-24T00:49:12;5.07;;;3.95;;
17818;SDS011;9034;50.284;19.310;2023-08-24T00:50:15;6.95;;;4.57;;
17818;SDS011;9034;50.284;19.310;2023-08-24T00:51:21;4.80;;;3.88;;
17818;SDS011;9034;50.284;19.310;2023-08-24T00:52:30;7.82;;;5.72;;
17818;SDS011;9034;50.284;19.310;2023-08-24T00:53:34;5.32;;;4.78;;
17818;SDS011;9034;50.284;19.310;2023-08-24T00:54:37;4.90;;;4.40;;
17818;SDS011;9034;50.284;19.310;2023-08-24T00:55:41;4.40;;;3.97;;
17818;SDS011;9034;50.284;19.310;2023-08-24T00:56:44;4.90;;;4.38;;
17818;SDS011;9034;50.284;19.310;2023-08-24T00:57:47;8.30;;;5.35;;
17818;SDS011;9034;50.284;19.310;2023-08-24T00:58:49;8.55;;;5.32;;
17818;SDS011;9034;50.284;19.310;2023-08-24T00:59:52;9.52;;;5.05;;
17818;SDS011;9034;50.284;19.310;2023-08-24T01:01:14;6.97;;;4.53;;
17818;SDS011;9034;50.284;19.310;2023-08-24T01:02:17;4.80;;;4.38;;
17818;SDS011;9034;50.284;19.310;2023-08-24T01:03:23;10.73;;;4.55;;
17818;SDS011;9034;50.284;19.310;2023-08-24T01:04:28;5.72;;;3.75;;
17818;SDS011;9034;50.284;19.310;2023-08-24T01:05:30;6.07;;;4.32;;
17818;SDS011;9034;50.284;19.310;2023-08-24T01:06:35;7.22;;;6.25;;
17818;SDS011;9034;50.284;19.310;2023-08-24T01:07:37;5.60;;;5.03;;
17818;SDS011;9034;50.284;19.310;2023-08-24T01:08:41;7.10;;;4.68;;
17818;SDS011;9034;50.284;19.310;2023-08-24T01:09:58;5.60;;;4.88;;
17818;SDS011;9034;50.284;19.310;2023-08-24T01:11:02;5.55;;;4.78;;
17818;SDS011;9034;50.284;19.310;2023-08-24T01:12:10;5.15;;;3.90;;
17818;SDS011;9034;50.284;19.310;2023-08-24T01:13:21;7.75;;;5.22;;
17818;SDS011;9034;50.284;19.310;2023-08-24T01:14:30;8.10;;;5.05;;
17818;SDS011;9034;50.284;19.310;2023-08-24T01:15:40;8.95;;;5.13;;
17818;SDS011;9034;50.284;19.310;2023-08-24T01:16:48;6.35;;;4.40;;
17818;SDS011;9034;50.284;19.310;2023-08-24T01:17:52;5.50;;;4.20;;
17818;SDS011;9034;50.284;19.310;2023-08-24T01:18:55;5.00;;;4.50;;
17818;SDS011;9034;50.284;19.310;2023-08-24T01:19:58;5.82;;;4.53;;
17818;SDS011;9034;50.284;19.310;2023-08-24T01:21:01;5.18;;;4.68;;
17818;SDS011;9034;50.284;19.310;2023-08-24T01:22:07;5.93;;;4.40;;
17818;SDS011;9034;50.284;19.310;2023-08-24T01:23:20;5.15;;;4.68;;
17818;SDS011;9034;50.284;19.310;2023-08-24T01:24:32;7.97;;;5.00;;
17818;SDS011;9034;50.284;19.310;2023-08-24T01:25:38;5.82;;;4.78;;
17818;SDS011;9034;50.284;19.310;2023-08-24T01:26:46;6.25;;;5.65;;
17818;SDS011;9034;50.284;19.310;2023-08-24T01:27:49;6.32;;;5.57;;
17818;SDS011;9034;50.284;19.310;2023-08-24T01:28:53;5.65;;;5.07;;
17818;SDS011;9034;50.284;19.310;2023-08-24T01:30:18;9.68;;;5.10;;
17818;SDS011;9034;50.284;19.310;2023-08-24T01:31:23;6.60;;;4.93;;
17818;SDS011;9034;50.284;19.310;2023-08-24T01:32:26;4.57;;;4.18;;
17818;SDS011;9034;50.284;19.310;2023-08-24T01:33:33;5.40;;;4.43;;
17818;SDS011;9034;50.284;19.310;2023-08-24T01:34:36;6.35;;;4.65;;
17818;SDS011;9034;50.284;19.310;2023-08-24T01:35:39;6.03;;;4.82;;
17818;SDS011;9034;50.284;19.310;2023-08-24T01:36:43;6.45;;;4.70;;
17818;SDS011;9034;50.284;19.310;2023-08-24T01:37:47;6.53;;;5.78;;
17818;SDS011;9034;50.284;19.310;2023-08-24T01:38:52;6.32;;;5.03;;
17818;SDS011;9034;50.284;19.310;2023-08-24T01:40:00;4.70;;;4.25;;
17818;SDS011;9034;50.284;19.310;2023-08-24T01:41:09;4.88;;;4.38;;
17818;SDS011;9034;50.284;19.310;2023-08-24T01:42:17;5.28;;;3.75;;
17818;SDS011;9034;50.284;19.310;2023-08-24T01:43:21;5.00;;;4.40;;
17818;SDS011;9034;50.284;19.310;2023-08-24T01:44:43;7.60;;;4.93;;
17818;SDS011;9034;50.284;19.310;2023-08-24T01:45:49;7.38;;;5.50;;
17818;SDS011;9034;50.284;19.310;2023-08-24T01:46:53;5.80;;;4.95;;
17818;SDS011;9034;50.284;19.310;2023-08-24T01:47:59;5.25;;;4.28;;
17818;SDS011;9034;50.284;19.310;2023-08-24T01:49:04;7.68;;;5.32;;
17818;SDS011;9034;50.284;19.310;2023-08-24T01:50:07;6.32;;;5.05;;
17818;SDS011;9034;50.284;19.310;2023-08-24T01:51:11;7.43;;;5.70;;
17818;SDS011;9034;50.284;19.310;2023-08-24T01:52:14;6.18;;;5.15;;
17818;SDS011;9034;50.284;19.310;2023-08-24T01:53:17;7.45;;;5.75;;
17818;SDS011;9034;50.284;19.310;2023-08-24T01:54:18;5.15;;;4.50;;
17818;SDS011;9034;50.284;19.310;2023-08-24T01:55:22;6.00;;;5.05;;
17818;SDS011;9034;50.284;19.310;2023-08-24T01:56:24;6.18;;;5.55;;
17818;SDS011;9034;50.284;19.310;2023-08-24T01:57:29;4.90;;;4.40;;
17818;SDS011;9034;50.284;19.310;2023-08-24T01:58:31;4.70;;;4.30;;
17818;SDS011;9034;50.284;19.310;2023-08-24T01:59:34;5.35;;;4.85;;
17818;SDS011;9034;50.284;19.310;2023-08-24T02:00:36;5.53;;;4.88;;
17818;SDS011;9034;50.284;19.310;2023-08-24T02:01:39;5.05;;;4.65;;
17818;SDS011;9034;50.284;19.310;2023-08-24T02:02:41;6.28;;;5.10;;
17818;SDS011;9034;50.284;19.310;2023-08-24T02:03:44;7.38;;;4.28;;
17818;SDS011;9034;50.284;19.310;2023-08-24T02:04:47;5.03;;;4.25;;
17818;SDS011;9034;50.284;19.310;2023-08-24T02:05:50;3.95;;;3.50;;
17818;SDS011;9034;50.284;19.310;2023-08-24T02:06:52;3.50;;;3.20;;
17818;SDS011;9034;50.284;19.310;2023-08-24T02:07:55;4.47;;;4.07;;
17818;SDS011;9034;50.284;19.310;2023-08-24T02:08:58;4.30;;;3.90;;
17818;SDS011;9034;50.284;19.310;2023-08-24T02:10:03;4.60;;;3.90;;
17818;SDS011;9034;50.284;19.310;2023-08-24T02:11:07;6.00;;;5.07;;
17818;SDS011;9034;50.284;19.310;2023-08-24T02:16:03;6.60;;;5.13;;
17818;SDS011;9034;50.284;19.310;2023-08-24T02:17:06;6.32;;;5.07;;
17818;SDS011;9034;50.284;19.310;2023-08-24T02:18:08;6.15;;;4.95;;
17818;SDS011;9034;50.284;19.310;2023-08-24T02:19:11;5.22;;;4.72;;
17818;SDS011;9034;50.284;19.310;2023-08-24T02:20:13;4.70;;;4.30;;
17818;SDS011;9034;50.284;19.310;2023-08-24T02:21:17;6.00;;;5.40;;
17818;SDS011;9034;50.284;19.310;2023-08-24T02:22:19;6.60;;;5.53;;
17818;SDS011;9034;50.284;19.310;2023-08-24T02:23:22;6.63;;;4.78;;
17818;SDS011;9034;50.284;19.310;2023-08-24T02:24:24;5.72;;;5.22;;
17818;SDS011;9034;50.284;19.310;2023-08-24T02:25:26;5.55;;;5.05;;
17818;SDS011;9034;50.284;19.310;2023-08-24T02:26:29;7.20;;;6.15;;
17818;SDS011;9034;50.284;19.310;2023-08-24T02:27:33;5.55;;;4.93;;
17818;SDS011;9034;50.284;19.310;2023-08-24T02:28:36;6.32;;;5.72;;
17818;SDS011;9034;50.284;19.310;2023-08-24T02:29:44;5.50;;;5.00;;
17818;SDS011;9034;50.284;19.310;2023-08-24T02:35:16;5.00;;;4.47;;
17818;SDS011;9034;50.284;19.310;2023-08-24T02:36:19;5.43;;;4.63;;
17818;SDS011;9034;50.284;19.310;2023-08-24T02:37:22;6.13;;;5.35;;
17818;SDS011;9034;50.284;19.310;2023-08-24T02:38:24;5.30;;;4.80;;
17818;SDS011;9034;50.284;19.310;2023-08-24T02:39:27;5.82;;;5.22;;
17818;SDS011;9034;50.284;19.310;2023-08-24T02:50:57;5.30;;;4.50;;
17818;SDS011;9034;50.284;19.310;2023-08-24T02:52:03;7.40;;;4.72;;
17818;SDS011;9034;50.284;19.310;2023-08-24T03:11:10;4.40;;;3.78;;
17818;SDS011;9034;50.284;19.310;2023-08-24T03:12:13;4.53;;;4.13;;
17818;SDS011;9034;50.284;19.310;2023-08-24T03:13:16;4.85;;;4.45;;
17818;SDS011;9034;50.284;19.310;2023-08-24T03:14:19;4.82;;;4.00;;
17818;SDS011;9034;50.284;19.310;2023-08-24T03:39:17;7.85;;;5.50;;
17818;SDS011;9034;50.284;19.310;2023-08-24T03:40:20;6.90;;;6.18;;
17818;SDS011;9034;50.284;19.310;2023-08-24T03:41:22;7.30;;;6.00;;
17818;SDS011;9034;50.284;19.310;2023-08-24T03:52:24;5.15;;;4.40;;
17818;SDS011;9034;50.284;19.310;2023-08-24T03:53:30;5.20;;;4.53;;
17818;SDS011;9034;50.284;19.310;2023-08-24T03:54:35;4.30;;;3.90;;
17818;SDS011;9034;50.284;19.310;2023-08-24T03:55:38;4.45;;;4.05;;
17818;SDS011;9034;50.284;19.310;2023-08-24T03:56:40;7.70;;;4.90;;
17818;SDS011;9034;50.284;19.310;2023-08-24T03:57:43;5.00;;;4.50;;
17818;SDS011;9034;50.284;19.310;2023-08-24T03:58:45;5.88;;;5.28;;
17818;SDS011;9034;50.284;19.310;2023-08-24T03:59:51;7.22;;;5.90;;
17818;SDS011;9034;50.284;19.310;2023-08-24T04:00:54;7.32;;;6.05;;
17818;SDS011;9034;50.284;19.310;2023-08-24T04:03:23;6.25;;;5.60;;
17818;SDS011;9034;50.284;19.310;2023-08-24T04:04:27;6.50;;;5.55;;
17818;SDS011;9034;50.284;19.310;2023-08-24T04:05:29;14.25;;;7.20;;
17818;SDS011;9034;50.284;19.310;2023-08-24T04:06:33;8.63;;;6.50;;
17818;SDS011;9034;50.284;19.310;2023-08-24T04:07:36;12.52;;;5.80;;
17818;SDS011;9034;50.284;19.310;2023-08-24T04:08:47;5.60;;;4.97;;
17818;SDS011;9034;50.284;19.310;2023-08-24T04:09:53;6.60;;;5.20;;
17818;SDS011;9034;50.284;19.310;2023-08-24T04:10:56;6.30;;;5.60;;
17818;SDS011;9034;50.284;19.310;2023-08-24T04:11:59;7.10;;;5.57;;
17818;SDS011;9034;50.284;19.310;2023-08-24T04:13:01;9.50;;;5.63;;
17818;SDS011;9034;50.284;19.310;2023-08-24T04:14:04;6.32;;;5.72;;
17818;SDS011;9034;50.284;19.310;2023-08-24T04:15:09;6.43;;;5.32;;
17818;SDS011;9034;50.284;19.310;2023-08-24T04:16:12;6.13;;;5.30;;
17818;SDS011;9034;50.284;19.310;2023-08-24T04:17:14;5.63;;;5.13;;
17818;SDS011;9034;50.284;19.310;2023-08-24T04:18:19;5.25;;;4.75;;
17818;SDS011;9034;50.284;19.310;2023-08-24T04:19:29;6.65;;;4.60;;
17818;SDS011;9034;50.284;19.310;2023-08-24T04:20:34;5.07;;;4.57;;
17818;SDS011;9034;50.284;19.310;2023-08-24T04:21:35;5.15;;;4.65;;
17818;SDS011;9034;50.284;19.310;2023-08-24T04:22:38;6.80;;;5.78;;
17818;SDS011;9034;50.284;19.310;2023-08-24T04:23:40;7.43;;;5.45;;
17818;SDS011;9034;50.284;19.310;2023-08-24T04:24:46;8.18;;;6.13;;
17818;SDS011;9034;50.284;19.310;2023-08-24T04:25:49;7.82;;;5.43;;
17818;SDS011;9034;50.284;19.310;2023-08-24T04:26:52;6.80;;;4.97;;
17818;SDS011;9034;50.284;19.310;2023-08-24T04:27:54;5.75;;;4.93;;
17818;SDS011;9034;50.284;19.310;2023-08-24T04:28:57;8.55;;;5.38;;
17818;SDS011;9034;50.284;19.310;2023-08-24T04:29:59;6.72;;;6.03;;
17818;SDS011;9034;50.284;19.310;2023-08-24T04:31:02;8.35;;;5.82;;
17818;SDS011;9034;50.284;19.310;2023-08-24T04:32:04;8.52;;;5.75;;
17818;SDS011;9034;50.284;19.310;2023-08-24T04:33:08;6.13;;;5.50;;
17818;SDS011;9034;50.284;19.310;2023-08-24T04:34:10;6.53;;;5.28;;
17818;SDS011;9034;50.284;19.310;2023-08-24T04:35:13;5.50;;;4.93;;
17818;SDS011;9034;50.284;19.310;2023-08-24T04:36:15;6.22;;;5.55;;
17818;SDS011;9034;50.284;19.310;2023-08-24T04:37:18;6.00;;;5.50;;
17818;SDS011;9034;50.284;19.310;2023-08-24T04:38:20;5.68;;;5.10;;
17818;SDS011;9034;50.284;19.310;2023-08-24T04:39:23;7.88;;;5.88;;
17818;SDS011;9034;50.284;19.310;2023-08-24T04:40:26;7.75;;;5.90;;
17818;SDS011;9034;50.284;19.310;2023-08-24T04:41:30;6.93;;;6.20;;
17818;SDS011;9034;50.284;19.310;2023-08-24T04:42:32;5.93;;;5.18;;
17818;SDS011;9034;50.284;19.310;2023-08-24T04:44:55;9.77;;;6.93;;
17818;SDS011;9034;50.284;19.310;2023-08-24T04:46:00;7.75;;;6.93;;
17818;SDS011;9034;50.284;19.310;2023-08-24T04:51:52;7.10;;;6.35;;
17818;SDS011;9034;50.284;19.310;2023-08-24T04:52:54;7.57;;;6.82;;
17818;SDS011;9034;50.284;19.310;2023-08-24T04:53:56;9.00;;;7.15;;
17818;SDS011;9034;50.284;19.310;2023-08-24T04:54:58;11.75;;;7.55;;
17818;SDS011;9034;50.284;19.310;2023-08-24T04:56:01;12.13;;;8.27;;
17818;SDS011;9034;50.284;19.310;2023-08-24T04:57:05;12.05;;;8.23;;
17818;SDS011;9034;50.284;19.310;2023-08-24T04:58:09;11.05;;;7.90;;
17818;SDS011;9034;50.284;19.310;2023-08-24T04:59:11;8.90;;;7.80;;
17818;SDS011;9034;50.284;19.310;2023-08-24T05:00:14;8.43;;;7.63;;
17818;SDS011;9034;50.284;19.310;2023-08-24T05:01:17;9.05;;;7.90;;
17818;SDS011;9034;50.284;19.310;2023-08-24T05:02:20;10.57;;;7.80;;
17818;SDS011;9034;50.284;19.310;2023-08-24T05:03:22;9.10;;;7.93;;
17818;SDS011;9034;50.284;19.310;2023-08-24T05:04:25;11.35;;;8.02;;
17818;SDS011;9034;50.284;19.310;2023-08-24T05:05:28;10.45;;;9.35;;
17818;SDS011;9034;50.284;19.310;2023-08-24T05:06:31;13.15;;;8.60;;
17818;SDS011;9034;50.284;19.310;2023-08-24T05:07:33;12.23;;;8.90;;
17818;SDS011;9034;50.284;19.310;2023-08-24T05:08:36;13.52;;;8.98;;
17818;SDS011;9034;50.284;19.310;2023-08-24T05:09:38;17.05;;;9.93;;
17818;SDS011;9034;50.284;19.310;2023-08-24T05:10:41;12.90;;;9.20;;
17818;SDS011;9034;50.284;19.310;2023-08-24T05:11:43;16.85;;;9.77;;
17818;SDS011;9034;50.284;19.310;2023-08-24T05:12:47;18.90;;;10.07;;
17818;SDS011;9034;50.284;19.310;2023-08-24T05:13:49;10.32;;;8.82;;
17818;SDS011;9034;50.284;19.310;2023-08-24T05:14:53;10.48;;;9.07;;
17818;SDS011;9034;50.284;19.310;2023-08-24T05:15:54;13.82;;;10.27;;
17818;SDS011;9034;50.284;19.310;2023-08-24T05:16:57;14.75;;;9.52;;
17818;SDS011;9034;50.284;19.310;2023-08-24T05:17:59;13.15;;;9.80;;
17818;SDS011;9034;50.284;19.310;2023-08-24T05:19:02;14.93;;;9.40;;
17818;SDS011;9034;50.284;19.310;2023-08-24T05:20:05;12.60;;;8.60;;
17818;SDS011;9034;50.284;19.310;2023-08-24T05:21:09;13.45;;;9.65;;
17818;SDS011;9034;50.284;19.310;2023-08-24T05:22:11;15.50;;;10.25;;
17818;SDS011;9034;50.284;19.310;2023-08-24T05:23:14;11.38;;;8.95;;
17818;SDS011;9034;50.284;19.310;2023-08-24T05:24:16;14.45;;;9.48;;
17818;SDS011;9034;50.284;19.310;2023-08-24T05:25:18;17.35;;;9.43;;
17818;SDS011;9034;50.284;19.310;2023-08-24T05:26:20;13.65;;;9.40;;
17818;SDS011;9034;50.284;19.310;2023-08-24T05:27:41;15.88;;;11.38;;
17818;SDS011;9034;50.284;19.310;2023-08-24T05:28:45;15.23;;;10.68;;
17818;SDS011;9034;50.284;19.310;2023-08-24T05:29:47;16.65;;;12.00;;
17818;SDS011;9034;50.284;19.310;2023-08-24T05:30:50;19.45;;;12.85;;
17818;SDS011;9034;50.284;19.310;2023-08-24T05:31:53;18.92;;;13.68;;
17818;SDS011;9034;50.284;19.310;2023-08-24T05:32:56;20.85;;;14.50;;
17818;SDS011;9034;50.284;19.310;2023-08-24T05:33:58;22.67;;;13.88;;
17818;SDS011;9034;50.284;19.310;2023-08-24T05:35:01;22.92;;;13.45;;
17818;SDS011;9034;50.284;19.310;2023-08-24T05:36:03;21.15;;;14.32;;
17818;SDS011;9034;50.284;19.310;2023-08-24T05:37:06;23.73;;;14.48;;
17818;SDS011;9034;50.284;19.310;2023-08-24T05:38:08;22.90;;;13.95;;
17818;SDS011;9034;50.284;19.310;2023-08-24T05:39:11;20.67;;;13.02;;
17818;SDS011;9034;50.284;19.310;2023-08-24T05:40:13;25.35;;;12.80;;
17818;SDS011;9034;50.284;19.310;2023-08-24T05:41:16;25.85;;;13.25;;
17818;SDS011;9034;50.284;19.310;2023-08-24T05:42:18;25.90;;;15.82;;
17818;SDS011;9034;50.284;19.310;2023-08-24T05:43:21;21.63;;;15.40;;
17818;SDS011;9034;50.284;19.310;2023-08-24T05:44:24;28.42;;;15.30;;
17818;SDS011;9034;50.284;19.310;2023-08-24T05:45:27;23.77;;;15.00;;
17818;SDS011;9034;50.284;19.310;2023-08-24T05:46:29;24.15;;;15.60;;
17818;SDS011;9034;50.284;19.310;2023-08-24T05:47:32;19.73;;;15.50;;
17818;SDS011;9034;50.284;19.310;2023-08-24T05:48:34;19.75;;;15.50;;
17818;SDS011;9034;50.284;19.310;2023-08-24T05:49:37;20.35;;;16.20;;
17818;SDS011;9034;50.284;19.310;2023-08-24T05:50:43;21.50;;;15.57;;
17818;SDS011;9034;50.284;19.310;2023-08-24T05:51:49;23.20;;;14.52;;
17818;SDS011;9034;50.284;19.310;2023-08-24T05:52:53;21.27;;;15.77;;
17818;SDS011;9034;50.284;19.310;2023-08-24T05:53:55;22.17;;;16.30;;
17818;SDS011;9034;50.284;19.310;2023-08-24T05:55:02;18.23;;;14.18;;
17818;SDS011;9034;50.284;19.310;2023-08-24T05:56:05;18.90;;;14.90;;
17818;SDS011;9034;50.284;19.310;2023-08-24T05:57:07;18.73;;;14.60;;
17818;SDS011;9034;50.284;19.310;2023-08-24T05:58:11;16.95;;;14.43;;
17818;SDS011;9034;50.284;19.310;2023-08-24T05:59:13;19.73;;;14.35;;
17818;SDS011;9034;50.284;19.310;2023-08-24T06:00:17;18.92;;;14.13;;
17818;SDS011;9034;50.284;19.310;2023-08-24T06:01:23;18.40;;;13.63;;
17818;SDS011;9034;50.284;19.310;2023-08-24T06:02:26;16.77;;;13.57;;
17818;SDS011;9034;50.284;19.310;2023-08-24T06:03:28;13.95;;;12.38;;
17818;SDS011;9034;50.284;19.310;2023-08-24T06:04:30;20.52;;;14.00;;
17818;SDS011;9034;50.284;19.310;2023-08-24T06:05:53;16.65;;;12.57;;
17818;SDS011;9034;50.284;19.310;2023-08-24T06:07:09;19.98;;;12.93;;
17818;SDS011;9034;50.284;19.310;2023-08-24T06:08:16;18.33;;;12.70;;
17818;SDS011;9034;50.284;19.310;2023-08-24T06:09:19;15.95;;;11.95;;
17818;SDS011;9034;50.284;19.310;2023-08-24T06:10:22;16.13;;;12.00;;
17818;SDS011;9034;50.284;19.310;2023-08-24T06:11:25;15.85;;;12.15;;
17818;SDS011;9034;50.284;19.310;2023-08-24T06:12:28;16.38;;;11.82;;
17818;SDS011;9034;50.284;19.310;2023-08-24T06:13:31;15.45;;;11.60;;
17818;SDS011;9034;50.284;19.310;2023-08-24T06:14:34;13.90;;;11.30;;
17818;SDS011;9034;50.284;19.310;2023-08-24T06:15:37;13.88;;;11.60;;
17818;SDS011;9034;50.284;19.310;2023-08-24T06:16:40;16.92;;;12.63;;
17818;SDS011;9034;50.284;19.310;2023-08-24T06:17:42;12.50;;;10.95;;
17818;SDS011;9034;50.284;19.310;2023-08-24T06:19:05;15.07;;;11.40;;
17818;SDS011;9034;50.284;19.310;2023-08-24T06:20:08;20.38;;;12.40;;
17818;SDS011;9034;50.284;19.310;2023-08-24T06:21:16;14.02;;;11.50;;
17818;SDS011;9034;50.284;19.310;2023-08-24T06:22:18;14.38;;;12.27;;
17818;SDS011;9034;50.284;19.310;2023-08-24T06:23:22;13.90;;;11.70;;
17818;SDS011;9034;50.284;19.310;2023-08-24T06:24:24;16.48;;;12.00;;
17818;SDS011;9034;50.284;19.310;2023-08-24T06:25:27;15.37;;;12.57;;
17818;SDS011;9034;50.284;19.310;2023-08-24T06:26:31;17.30;;;13.87;;
17818;SDS011;9034;50.284;19.310;2023-08-24T06:27:35;16.80;;;14.20;;
17818;SDS011;9034;50.284;19.310;2023-08-24T06:28:37;18.97;;;14.80;;
17818;SDS011;9034;50.284;19.310;2023-08-24T06:29:42;15.90;;;13.40;;
17818;SDS011;9034;50.284;19.310;2023-08-24T06:30:45;16.53;;;13.33;;
17818;SDS011;9034;50.284;19.310;2023-08-24T06:31:49;15.57;;;12.30;;
17818;SDS011;9034;50.284;19.310;2023-08-24T06:32:52;17.47;;;13.00;;
17818;SDS011;9034;50.284;19.310;2023-08-24T06:33:55;19.93;;;12.03;;
17818;SDS011;9034;50.284;19.310;2023-08-24T06:34:57;13.80;;;12.30;;
17818;SDS011;9034;50.284;19.310;2023-08-24T06:35:59;14.13;;;11.67;;
17818;SDS011;9034;50.284;19.310;2023-08-24T06:37:02;15.37;;;12.47;;
17818;SDS011;9034;50.284;19.310;2023-08-24T06:38:05;14.13;;;12.63;;
17818;SDS011;9034;50.284;19.310;2023-08-24T06:39:08;15.93;;;11.53;;
17818;SDS011;9034;50.284;19.310;2023-08-24T06:40:10;15.43;;;11.30;;
17818;SDS011;9034;50.284;19.310;2023-08-24T06:41:14;18.17;;;12.40;;
17818;SDS011;9034;50.284;19.310;2023-08-24T06:42:16;13.87;;;11.90;;
17818;SDS011;9034;50.284;19.310;2023-08-24T06:43:21;16.93;;;11.90;;
17818;SDS011;9034;50.284;19.310;2023-08-24T06:44:22;14.50;;;11.80;;
17818;SDS011;9034;50.284;19.310;2023-08-24T06:45:26;12.53;;;11.23;;
17818;SDS011;9034;50.284;19.310;2023-08-24T06:51:18;12.10;;;10.00;;
17818;SDS011;9034;50.284;19.310;2023-08-24T06:52:35;13.20;;;10.53;;
17818;SDS011;9034;50.284;19.310;2023-08-24T06:53:38;19.53;;;9.60;;
17818;SDS011;9034;50.284;19.310;2023-08-24T06:54:40;12.63;;;9.80;;
17818;SDS011;9034;50.284;19.310;2023-08-24T06:55:43;10.67;;;8.97;;
17818;SDS011;9034;50.284;19.310;2023-08-24T06:56:45;14.17;;;8.90;;
17818;SDS011;9034;50.284;19.310;2023-08-24T06:57:48;12.37;;;9.27;;
17818;SDS011;9034;50.284;19.310;2023-08-24T06:58:51;9.30;;;8.27;;
17818;SDS011;9034;50.284;19.310;2023-08-24T06:59:53;11.40;;;9.07;;
17818;SDS011;9034;50.284;19.310;2023-08-24T07:00:56;10.23;;;8.17;;
17818;SDS011;9034;50.284;19.310;2023-08-24T07:01:59;13.77;;;9.37;;
17818;SDS011;9034;50.284;19.310;2023-08-24T07:03:02;12.23;;;9.10;;
17818;SDS011;9034;50.284;19.310;2023-08-24T07:04:06;10.63;;;9.07;;
17818;SDS011;9034;50.284;19.310;2023-08-24T07:05:09;11.60;;;8.83;;
17818;SDS011;9034;50.284;19.310;2023-08-24T07:06:11;11.57;;;8.53;;
17818;SDS011;9034;50.284;19.310;2023-08-24T07:07:15;11.50;;;8.13;;
17818;SDS011;9034;50.284;19.310;2023-08-24T07:08:17;14.93;;;8.67;;
17818;SDS011;9034;50.284;19.310;2023-08-24T07:09:20;11.53;;;8.07;;
17818;SDS011;9034;50.284;19.310;2023-08-24T07:10:23;14.60;;;8.70;;
17818;SDS011;9034;50.284;19.310;2023-08-24T07:11:26;14.03;;;8.63;;
17818;SDS011;9034;50.284;19.310;2023-08-24T07:12:28;18.50;;;8.87;;
17818;SDS011;9034;50.284;19.310;2023-08-24T07:13:31;12.37;;;8.93;;
17818;SDS011;9034;50.284;19.310;2023-08-24T07:14:34;9.33;;;8.33;;
17818;SDS011;9034;50.284;19.310;2023-08-24T07:15:37;12.13;;;8.17;;
17818;SDS011;9034;50.284;19.310;2023-08-24T07:16:39;12.13;;;7.50;;
17818;SDS011;9034;50.284;19.310;2023-08-24T07:17:42;9.90;;;7.40;;
17818;SDS011;9034;50.284;19.310;2023-08-24T07:18:44;10.80;;;7.97;;
17818;SDS011;9034;50.284;19.310;2023-08-24T07:19:47;9.97;;;8.13;;
17818;SDS011;9034;50.284;19.310;2023-08-24T07:20:49;15.33;;;8.03;;
17818;SDS011;9034;50.284;19.310;2023-08-24T07:21:52;16.60;;;7.60;;
17818;SDS011;9034;50.284;19.310;2023-08-24T07:22:55;12.97;;;8.67;;
17818;SDS011;9034;50.284;19.310;2023-08-24T07:24:06;12.63;;;7.53;;
17818;SDS011;9034;50.284;19.310;2023-08-24T07:25:08;8.63;;;7.37;;
17818;SDS011;9034;50.284;19.310;2023-08-24T07:26:13;9.20;;;7.43;;
17818;SDS011;9034;50.284;19.310;2023-08-24T07:27:15;10.20;;;7.77;;
17818;SDS011;9034;50.284;19.310;2023-08-24T07:28:21;9.70;;;7.30;;
17818;SDS011;9034;50.284;19.310;2023-08-24T07:29:24;8.27;;;7.33;;
17818;SDS011;9034;50.284;19.310;2023-08-24T07:30:26;10.27;;;7.33;;
17818;SDS011;9034;50.284;19.310;2023-08-24T07:31:36;11.40;;;8.40;;
17818;SDS011;9034;50.284;19.310;2023-08-24T07:32:40;9.30;;;7.67;;
17818;SDS011;9034;50.284;19.310;2023-08-24T07:33:44;8.57;;;7.67;;
17818;SDS011;9034;50.284;19.310;2023-08-24T07:34:47;10.10;;;6.70;;
17818;SDS011;9034;50.284;19.310;2023-08-24T07:35:50;8.43;;;6.70;;
17818;SDS011;9034;50.284;19.310;2023-08-24T07:36:54;12.53;;;7.97;;
17818;SDS011;9034;50.284;19.310;2023-08-24T07:38:01;8.90;;;7.37;;
17818;SDS011;9034;50.284;19.310;2023-08-24T07:39:08;8.50;;;6.90;;
17818;SDS011;9034;50.284;19.310;2023-08-24T07:40:11;7.80;;;6.97;;
17818;SDS011;9034;50.284;19.310;2023-08-24T07:41:13;8.67;;;6.80;;
17818;SDS011;9034;50.284;19.310;2023-08-24T07:42:19;10.17;;;6.30;;
17818;SDS011;9034;50.284;19.310;2023-08-24T07:43:23;8.33;;;6.73;;
17818;SDS011;9034;50.284;19.310;2023-08-24T07:44:25;8.43;;;6.73;;
17818;SDS011;9034;50.284;19.310;2023-08-24T07:45:30;9.27;;;7.40;;